Archival Weather

Chicago O'Hare International

Chicago, Illinois (KORD)

Report from: Wednesday, February 16, 2022 10:51 PM CST
Current time: Saturday, February 4, 2023 10:32 PM CST

Current weather
Weather history
Weather forecast

Present weatherRain, mist
Temperature7.8°C (46.0°F)
Wind chill4.6°C (40.2°F)
Dew point6.1°C (43.0°F)
Winds 11 kts (5.7 m/s, 12.7 mph) North (360°)
Visibility4 mi. (6.4 km)
Clouds Ceiling: Broken clouds 500 ft. (152 m)
Overcast 1,200 ft. (366 m)
Altimeter29.77 in.Hg (1008 mB)
Precipitiation0.25 in. (6 mm)
Relative humidity89 %
Density altitude-554 ft. (-169 m)
Sea-level pressure100.8 kPa (1008 mB, 29.78 in.Hg)
Remarks Automated weather observing station with precipitation discriminator
Flight conditions Instrument Meteorological Conditions
Raw dataKORD 170451Z 36011KT 4SM RA BR BKN005 OVC012 08/06 A2977 RMK AO2 SLP084 P0025 T00780061
An unhandled exception has occurred. See browser dev tools for details. Reload 🗙